createdAt,value
2023-05-07T00:00:45.551Z,538.00
2023-05-07T00:01:45.603Z,537.00
2023-05-07T00:02:45.792Z,537.00
2023-05-07T00:03:46.104Z,539.00
2023-05-07T00:04:45.881Z,536.00
2023-05-07T00:05:45.882Z,531.00
2023-05-07T00:06:45.932Z,531.00
2023-05-07T00:07:46.002Z,534.00
2023-05-07T00:08:46.069Z,532.00
2023-05-07T00:09:46.124Z,530.00
2023-05-07T00:10:46.204Z,531.00
2023-05-07T00:11:46.244Z,534.00
2023-05-07T00:12:46.340Z,534.00
2023-05-07T00:13:46.391Z,535.00
2023-05-07T00:14:46.444Z,534.00
2023-05-07T00:15:46.518Z,536.00
2023-05-07T00:16:46.606Z,537.00
2023-05-07T00:17:46.656Z,537.00
2023-05-07T00:18:46.672Z,535.00
2023-05-07T00:19:46.809Z,534.00
2023-05-07T00:20:46.805Z,533.00
2023-05-07T00:21:46.868Z,533.00
2023-05-07T00:22:46.949Z,532.00
2023-05-07T00:23:47.015Z,532.00
2023-05-07T00:24:47.036Z,533.00
2023-05-07T00:25:47.112Z,530.00
2023-05-07T00:26:47.177Z,529.00
2023-05-07T00:27:47.248Z,529.00
2023-05-07T00:28:47.323Z,529.00
2023-05-07T00:29:47.369Z,527.00
2023-05-07T00:30:47.421Z,525.00
2023-05-07T00:31:47.519Z,524.00
2023-05-07T00:32:47.566Z,522.00
2023-05-07T00:33:47.668Z,522.00
2023-05-07T00:34:47.687Z,524.00
2023-05-07T00:35:47.818Z,526.00
2023-05-07T00:36:47.820Z,528.00
2023-05-07T00:37:47.898Z,526.00
2023-05-07T00:38:47.951Z,525.00
2023-05-07T00:39:48.012Z,525.00
2023-05-07T00:40:48.088Z,524.00
2023-05-07T00:41:48.144Z,526.00
2023-05-07T00:42:48.313Z,528.00
2023-05-07T00:43:48.258Z,526.00
2023-05-07T00:44:48.309Z,526.00
2023-05-07T00:45:48.432Z,526.00
2023-05-07T00:46:48.418Z,524.00
2023-05-07T00:47:48.572Z,525.00
2023-05-07T00:48:48.551Z,528.00
2023-05-07T00:49:48.651Z,528.00
2023-05-07T00:50:48.685Z,529.00
2023-05-07T00:51:48.849Z,530.00
2023-05-07T00:52:48.831Z,530.00
2023-05-07T00:53:48.880Z,531.00
2023-05-07T00:54:48.947Z,532.00
2023-05-07T00:55:49.025Z,531.00
2023-05-07T00:56:49.064Z,530.00
2023-05-07T00:57:49.146Z,528.00
2023-05-07T00:58:49.252Z,525.00
2023-05-07T00:59:49.274Z,521.00
2023-05-07T01:00:49.373Z,520.00
2023-05-07T01:01:49.444Z,518.00
2023-05-07T01:02:49.592Z,517.00
2023-05-07T01:03:49.538Z,515.00
2023-05-07T01:04:49.621Z,517.00
2023-05-07T01:05:49.682Z,519.00
2023-05-07T01:06:49.704Z,522.00
2023-05-07T01:07:49.854Z,523.00
2023-05-07T01:08:49.834Z,524.00
2023-05-07T01:09:49.937Z,522.00
2023-05-07T01:10:50.004Z,523.00
2023-05-07T01:11:50.079Z,522.00
2023-05-07T01:12:50.191Z,520.00
2023-05-07T01:13:50.169Z,521.00
2023-05-07T01:14:50.234Z,520.00
2023-05-07T01:15:50.295Z,520.00
2023-05-07T01:16:50.390Z,519.00
2023-05-07T01:17:50.468Z,520.00
2023-05-07T01:18:50.504Z,521.00
2023-05-07T01:19:50.564Z,519.00
2023-05-07T01:20:50.634Z,520.00
2023-05-07T01:21:50.681Z,522.00
2023-05-07T01:22:50.761Z,522.00
2023-05-07T01:23:50.796Z,522.00
2023-05-07T01:24:50.852Z,521.00
2023-05-07T01:25:50.941Z,518.00
2023-05-07T01:26:51.002Z,519.00
2023-05-07T01:27:51.062Z,520.00
2023-05-07T01:28:51.108Z,520.00
2023-05-07T01:29:51.167Z,521.00
2023-05-07T01:30:51.255Z,524.00
2023-05-07T01:31:51.334Z,523.00
2023-05-07T01:32:51.422Z,522.00
2023-05-07T01:33:51.456Z,523.00
2023-05-07T01:34:51.531Z,523.00
2023-05-07T01:35:51.565Z,525.00
2023-05-07T01:36:51.637Z,526.00
2023-05-07T01:37:51.709Z,527.00
2023-05-07T01:38:51.770Z,527.00
2023-05-07T01:39:51.839Z,525.00
2023-05-07T01:40:51.906Z,527.00
2023-05-07T01:41:51.978Z,527.00
2023-05-07T01:42:52.056Z,525.00
2023-05-07T01:43:52.082Z,525.00
2023-05-07T01:44:52.142Z,525.00
2023-05-07T01:45:52.210Z,526.00
2023-05-07T01:46:52.358Z,526.00
2023-05-07T01:47:52.427Z,525.00
2023-05-07T01:48:52.870Z,525.00
2023-05-07T01:49:52.463Z,525.00
2023-05-07T01:50:52.535Z,527.00
2023-05-07T01:51:52.624Z,526.00
2023-05-07T01:52:52.651Z,526.00
2023-05-07T01:53:52.703Z,524.00
2023-05-07T01:54:52.802Z,521.00
2023-05-07T01:55:52.912Z,524.00
2023-05-07T01:56:52.902Z,521.00
2023-05-07T01:57:52.989Z,522.00
2023-05-07T01:58:53.047Z,521.00
2023-05-07T01:59:53.110Z,523.00
2023-05-07T02:00:53.176Z,524.00
2023-05-07T02:01:53.365Z,523.00
2023-05-07T02:02:53.445Z,523.00
2023-05-07T02:03:53.510Z,522.00
2023-05-07T02:04:53.405Z,520.00
2023-05-07T02:05:53.467Z,522.00
2023-05-07T02:06:53.543Z,523.00
2023-05-07T02:07:53.608Z,522.00
2023-05-07T02:08:53.649Z,521.00
2023-05-07T02:09:53.720Z,520.00
2023-05-07T02:10:53.810Z,521.00
2023-05-07T02:11:53.932Z,522.00
2023-05-07T02:12:53.956Z,523.00
2023-05-07T02:13:53.999Z,526.00
2023-05-07T02:14:54.048Z,526.00
2023-05-07T02:15:54.137Z,528.00
2023-05-07T02:16:54.223Z,526.00
2023-05-07T02:17:54.276Z,525.00
2023-05-07T02:18:54.286Z,524.00
2023-05-07T02:19:54.359Z,524.00
2023-05-07T02:20:54.415Z,521.00
2023-05-07T02:21:54.506Z,521.00
2023-05-07T02:22:54.562Z,522.00
2023-05-07T02:23:54.601Z,519.00
2023-05-07T02:24:54.680Z,517.00
2023-05-07T02:25:54.743Z,517.00
2023-05-07T02:26:54.809Z,517.00
2023-05-07T02:27:54.914Z,515.00
2023-05-07T02:28:54.922Z,516.00
2023-05-07T02:29:54.971Z,517.00
2023-05-07T02:30:55.026Z,518.00
2023-05-07T02:31:55.161Z,521.00
2023-05-07T02:32:55.192Z,520.00
2023-05-07T02:33:55.244Z,519.00
2023-05-07T02:34:55.309Z,519.00
2023-05-07T02:35:55.385Z,518.00
2023-05-07T02:36:55.436Z,518.00
2023-05-07T02:37:55.512Z,520.00
2023-05-07T02:38:55.584Z,518.00
2023-05-07T02:39:55.657Z,520.00
2023-05-07T02:40:55.693Z,519.00
2023-05-07T02:41:55.762Z,519.00
2023-05-07T02:42:55.828Z,518.00
2023-05-07T02:43:55.945Z,517.00
2023-05-07T02:44:55.946Z,513.00
2023-05-07T02:45:56.068Z,514.00
2023-05-07T02:46:56.086Z,513.00
2023-05-07T02:47:56.153Z,516.00
2023-05-07T02:48:56.210Z,515.00
2023-05-07T02:49:56.266Z,515.00
2023-05-07T02:50:56.340Z,515.00
2023-05-07T02:51:56.394Z,514.00
2023-05-07T02:52:56.454Z,514.00
2023-05-07T02:53:56.541Z,513.00
2023-05-07T02:54:56.596Z,515.00
2023-05-07T02:55:56.659Z,513.00
2023-05-07T02:56:56.739Z,513.00
2023-05-07T02:57:56.811Z,514.00
2023-05-07T02:58:56.862Z,514.00
2023-05-07T02:59:57.075Z,514.00
2023-05-07T03:00:57.082Z,514.00
2023-05-07T03:01:57.060Z,515.00
2023-05-07T03:02:57.297Z,516.00
2023-05-07T03:03:57.196Z,515.00
2023-05-07T03:04:57.215Z,514.00
2023-05-07T03:05:57.301Z,516.00
2023-05-07T03:06:57.360Z,517.00
2023-05-07T03:07:57.436Z,516.00
2023-05-07T03:08:57.499Z,515.00
2023-05-07T03:09:57.561Z,517.00
2023-05-07T03:10:57.631Z,513.00
2023-05-07T03:11:57.700Z,512.00
2023-05-07T03:12:57.776Z,510.00
2023-05-07T03:13:57.822Z,509.00
2023-05-07T03:14:57.888Z,509.00
2023-05-07T03:15:58.053Z,509.00
2023-05-07T03:16:58.022Z,507.00
2023-05-07T03:17:58.104Z,506.00
2023-05-07T03:18:58.169Z,507.00
2023-05-07T03:19:58.205Z,508.00
2023-05-07T03:20:58.296Z,508.00
2023-05-07T03:21:58.315Z,508.00
2023-05-07T03:22:58.414Z,506.00
2023-05-07T03:23:58.456Z,502.00
2023-05-07T03:24:58.545Z,506.00
2023-05-07T03:25:58.567Z,506.00
2023-05-07T03:26:58.628Z,508.00
2023-05-07T03:27:58.700Z,506.00
2023-05-07T03:28:58.784Z,505.00
2023-05-07T03:29:58.846Z,505.00
2023-05-07T03:30:58.924Z,505.00
2023-05-07T03:31:58.963Z,506.00
2023-05-07T03:32:59.106Z,507.00
2023-05-07T03:33:59.136Z,508.00
2023-05-07T03:34:59.167Z,510.00
2023-05-07T03:35:59.233Z,510.00
2023-05-07T03:36:59.287Z,510.00
2023-05-07T03:37:59.376Z,509.00
2023-05-07T03:38:59.468Z,507.00
2023-05-07T03:39:59.455Z,506.00
2023-05-07T03:40:59.560Z,507.00
2023-05-07T03:41:59.617Z,508.00
2023-05-07T03:42:59.675Z,511.00
2023-05-07T03:43:59.719Z,512.00
2023-05-07T03:44:59.776Z,515.00
2023-05-07T03:45:59.889Z,513.00
2023-05-07T03:46:59.913Z,510.00
2023-05-07T03:47:59.981Z,510.00
2023-05-07T03:49:00.046Z,510.00
2023-05-07T03:50:00.177Z,509.00
2023-05-07T03:51:00.155Z,508.00
2023-05-07T03:52:00.227Z,507.00
2023-05-07T03:53:00.281Z,504.00
2023-05-07T03:54:00.343Z,507.00
2023-05-07T03:55:00.402Z,505.00
2023-05-07T03:56:00.494Z,505.00
2023-05-07T03:57:00.559Z,505.00
2023-05-07T03:58:00.640Z,505.00
2023-05-07T03:59:00.746Z,506.00
2023-05-07T04:00:00.736Z,506.00
2023-05-07T04:01:00.816Z,506.00
2023-05-07T04:02:02.212Z,504.00
2023-05-07T04:03:00.952Z,500.00
2023-05-07T04:04:01.028Z,500.00
2023-05-07T04:05:00.836Z,502.00
2023-05-07T04:06:00.866Z,506.00
2023-05-07T04:07:00.846Z,509.00
2023-05-07T04:08:00.826Z,509.00
2023-05-07T04:09:00.813Z,507.00
2023-05-07T04:10:00.848Z,504.00
2023-05-07T04:11:01.236Z,503.00
2023-05-07T04:12:00.793Z,504.00
2023-05-07T04:13:00.861Z,504.00
2023-05-07T04:14:00.810Z,507.00
2023-05-07T04:15:00.790Z,509.00
2023-05-07T04:16:00.791Z,509.00
2023-05-07T04:17:00.840Z,506.00
2023-05-07T04:18:00.788Z,503.00
2023-05-07T04:19:00.752Z,507.00
2023-05-07T04:20:00.742Z,505.00
2023-05-07T04:21:00.768Z,503.00
2023-05-07T04:22:00.752Z,504.00
2023-05-07T04:23:00.749Z,504.00
2023-05-07T04:24:00.723Z,506.00
2023-05-07T04:25:00.738Z,507.00
2023-05-07T04:26:00.701Z,508.00
2023-05-07T04:27:00.732Z,507.00
2023-05-07T04:28:00.714Z,508.00
2023-05-07T04:29:00.738Z,508.00
2023-05-07T04:30:00.701Z,511.00
2023-05-07T04:31:00.703Z,509.00
2023-05-07T04:32:00.759Z,508.00
2023-05-07T04:33:00.763Z,509.00
2023-05-07T04:34:00.685Z,508.00
2023-05-07T04:35:00.649Z,507.00
2023-05-07T04:36:00.809Z,507.00
2023-05-07T04:37:00.773Z,506.00
2023-05-07T04:38:00.831Z,506.00
2023-05-07T04:39:00.923Z,506.00
2023-05-07T04:40:00.961Z,507.00
2023-05-07T04:41:00.988Z,508.00
2023-05-07T04:42:01.090Z,510.00
2023-05-07T04:43:01.132Z,509.00
2023-05-07T04:44:01.208Z,509.00
2023-05-07T04:45:01.280Z,509.00
2023-05-07T04:46:01.390Z,508.00
2023-05-07T04:47:01.402Z,506.00
2023-05-07T04:48:01.509Z,507.00
2023-05-07T04:49:01.538Z,504.00
2023-05-07T04:50:01.592Z,503.00
2023-05-07T04:51:01.665Z,502.00
2023-05-07T04:52:01.734Z,504.00
2023-05-07T04:53:01.802Z,503.00
2023-05-07T04:54:01.868Z,500.00
2023-05-07T04:55:01.961Z,498.00
2023-05-07T04:56:01.989Z,499.00
2023-05-07T04:57:02.055Z,498.00
2023-05-07T04:58:02.126Z,498.00
2023-05-07T04:59:02.161Z,499.00
2023-05-07T05:00:02.265Z,500.00
2023-05-07T05:01:02.334Z,500.00
2023-05-07T05:02:02.438Z,497.00
2023-05-07T05:03:02.539Z,497.00
2023-05-07T05:04:02.601Z,497.00
2023-05-07T05:05:02.587Z,499.00
2023-05-07T05:06:02.669Z,500.00
2023-05-07T05:07:02.708Z,501.00
2023-05-07T05:08:02.831Z,500.00
2023-05-07T05:09:02.799Z,498.00
2023-05-07T05:10:02.885Z,497.00
2023-05-07T05:11:02.952Z,496.00
2023-05-07T05:12:03.010Z,496.00
2023-05-07T05:13:03.095Z,496.00
2023-05-07T05:14:03.123Z,498.00
2023-05-07T05:15:03.205Z,500.00
2023-05-07T05:16:03.266Z,500.00
2023-05-07T05:17:03.333Z,501.00
2023-05-07T05:18:03.450Z,500.00
2023-05-07T05:19:03.465Z,501.00
2023-05-07T05:20:03.521Z,502.00
2023-05-07T05:21:03.567Z,502.00
2023-05-07T05:22:03.620Z,504.00
2023-05-07T05:23:03.712Z,503.00
2023-05-07T05:24:03.944Z,499.00
2023-05-07T05:25:03.801Z,499.00
2023-05-07T05:26:03.896Z,502.00
2023-05-07T05:27:03.922Z,501.00
2023-05-07T05:28:04.031Z,501.00
2023-05-07T05:29:04.050Z,503.00
2023-05-07T05:30:04.119Z,502.00
2023-05-07T05:31:04.230Z,502.00
2023-05-07T05:32:04.345Z,502.00
2023-05-07T05:33:04.393Z,500.00
2023-05-07T05:34:04.401Z,499.00
2023-05-07T05:35:04.446Z,499.00
2023-05-07T05:36:04.517Z,499.00
2023-05-07T05:37:04.583Z,497.00
2023-05-07T05:38:04.697Z,499.00
2023-05-07T05:39:04.692Z,501.00
2023-05-07T05:40:05.740Z,503.00
2023-05-07T05:41:04.848Z,505.00
2023-05-07T05:42:04.923Z,503.00
2023-05-07T05:43:04.962Z,503.00
2023-05-07T05:44:05.026Z,504.00
2023-05-07T05:45:05.062Z,501.00
2023-05-07T05:46:05.227Z,500.00
2023-05-07T05:47:05.236Z,498.00
2023-05-07T05:48:05.300Z,498.00
2023-05-07T05:49:05.330Z,498.00
2023-05-07T05:50:05.383Z,499.00
2023-05-07T05:51:05.482Z,499.00
2023-05-07T05:52:05.535Z,500.00
2023-05-07T05:53:05.615Z,500.00
2023-05-07T05:54:05.652Z,496.00
2023-05-07T05:55:05.719Z,493.00
2023-05-07T05:56:05.781Z,493.00
2023-05-07T05:57:05.870Z,497.00
2023-05-07T05:58:05.969Z,497.00
2023-05-07T05:59:06.008Z,495.00
2023-05-07T06:00:06.089Z,491.00
2023-05-07T06:01:06.094Z,490.00
2023-05-07T06:02:06.219Z,490.00
2023-05-07T06:03:06.300Z,490.00
2023-05-07T06:04:06.307Z,491.00
2023-05-07T06:05:06.441Z,490.00
2023-05-07T06:06:06.453Z,491.00
2023-05-07T06:07:06.485Z,491.00
2023-05-07T06:08:06.559Z,491.00
2023-05-07T06:09:06.633Z,490.00
2023-05-07T06:10:06.698Z,493.00
2023-05-07T06:11:06.736Z,493.00
2023-05-07T06:12:06.908Z,493.00
2023-05-07T06:13:06.947Z,491.00
2023-05-07T06:14:07.030Z,490.00
2023-05-07T06:15:07.004Z,491.00
2023-05-07T06:16:07.076Z,493.00
2023-05-07T06:17:07.180Z,493.00
2023-05-07T06:18:07.260Z,494.00
2023-05-07T06:19:07.248Z,494.00
2023-05-07T06:20:07.332Z,495.00
2023-05-07T06:21:07.384Z,496.00
2023-05-07T06:22:07.477Z,495.00
2023-05-07T06:23:07.524Z,494.00
2023-05-07T06:24:07.605Z,494.00
2023-05-07T06:25:07.616Z,493.00
2023-05-07T06:26:07.698Z,494.00
2023-05-07T06:27:07.762Z,493.00
2023-05-07T06:28:07.901Z,492.00
2023-05-07T06:29:07.919Z,495.00
2023-05-07T06:30:08.333Z,495.00
2023-05-07T06:31:08.029Z,495.00
2023-05-07T06:32:08.193Z,495.00
2023-05-07T06:33:08.200Z,496.00
2023-05-07T06:34:08.192Z,493.00
2023-05-07T06:35:08.294Z,492.00
2023-05-07T06:36:08.349Z,492.00
2023-05-07T06:37:08.394Z,493.00
2023-05-07T06:38:08.469Z,493.00
2023-05-07T06:39:08.527Z,493.00
2023-05-07T06:40:08.785Z,492.00
2023-05-07T06:41:08.651Z,493.00
2023-05-07T06:42:08.747Z,494.00
2023-05-07T06:43:08.784Z,493.00
2023-05-07T06:44:09.868Z,493.00
2023-05-07T06:45:08.895Z,491.00
2023-05-07T06:46:09.056Z,488.00
2023-05-07T06:47:09.010Z,490.00
2023-05-07T06:48:09.109Z,491.00
2023-05-07T06:49:09.168Z,493.00
2023-05-07T06:50:09.318Z,490.00
2023-05-07T06:51:09.275Z,488.00
2023-05-07T06:52:09.356Z,489.00
2023-05-07T06:53:09.395Z,490.00
2023-05-07T06:54:09.481Z,487.00
2023-05-07T06:55:10.134Z,487.00
2023-05-07T06:56:09.592Z,487.00
2023-05-07T06:57:09.641Z,488.00
2023-05-07T06:58:09.762Z,490.00
2023-05-07T06:59:09.783Z,492.00
2023-05-07T07:00:10.632Z,489.00
2023-05-07T07:01:09.944Z,488.00
2023-05-07T07:02:09.972Z,486.00
2023-05-07T07:03:10.065Z,486.00
2023-05-07T07:04:10.144Z,487.00
2023-05-07T07:05:10.220Z,487.00
2023-05-07T07:06:10.250Z,487.00
2023-05-07T07:07:10.287Z,487.00
2023-05-07T07:08:10.338Z,486.00
2023-05-07T07:09:10.431Z,486.00
2023-05-07T07:10:10.618Z,485.00
2023-05-07T07:11:10.551Z,488.00
2023-05-07T07:12:10.632Z,489.00
2023-05-07T07:13:10.711Z,489.00
2023-05-07T07:14:10.728Z,490.00
2023-05-07T07:15:10.767Z,488.00
2023-05-07T07:16:10.978Z,491.00
2023-05-07T07:17:10.923Z,487.00
2023-05-07T07:18:11.062Z,489.00
2023-05-07T07:19:11.053Z,491.00
2023-05-07T07:20:12.252Z,491.00
2023-05-07T07:21:11.171Z,490.00
2023-05-07T07:22:11.280Z,489.00
2023-05-07T07:23:11.323Z,489.00
2023-05-07T07:24:11.386Z,489.00
2023-05-07T07:25:11.402Z,489.00
2023-05-07T07:26:11.483Z,486.00
2023-05-07T07:27:11.543Z,483.00
2023-05-07T07:28:11.634Z,482.00
2023-05-07T07:29:11.710Z,480.00
2023-05-07T07:30:11.962Z,483.00
2023-05-07T07:31:11.807Z,482.00
2023-05-07T07:32:11.918Z,480.00
2023-05-07T07:33:11.952Z,478.00
2023-05-07T07:34:11.973Z,478.00
2023-05-07T07:35:12.048Z,479.00
2023-05-07T07:36:12.112Z,480.00
2023-05-07T07:37:12.155Z,480.00
2023-05-07T07:38:12.230Z,479.00
2023-05-07T07:39:12.315Z,481.00
2023-05-07T07:40:12.497Z,483.00
2023-05-07T07:41:12.452Z,483.00
2023-05-07T07:42:12.469Z,483.00
2023-05-07T07:43:12.530Z,484.00
2023-05-07T07:44:15.370Z,483.00
2023-05-07T07:45:12.611Z,481.00
2023-05-07T07:46:12.598Z,481.00
2023-05-07T07:47:12.590Z,480.00
2023-05-07T07:48:12.593Z,481.00
2023-05-07T07:49:12.619Z,481.00
2023-05-07T07:50:17.152Z,483.00
2023-05-07T07:51:13.545Z,484.00
2023-05-07T07:52:12.552Z,486.00
2023-05-07T07:53:12.555Z,485.00
2023-05-07T07:54:12.518Z,484.00
2023-05-07T07:55:12.544Z,483.00
2023-05-07T07:56:12.517Z,483.00
2023-05-07T07:57:12.488Z,485.00
2023-05-07T07:58:12.514Z,485.00
2023-05-07T07:59:12.563Z,481.00
2023-05-07T08:00:12.764Z,480.00
2023-05-07T08:01:12.687Z,480.00
2023-05-07T08:02:12.840Z,481.00
2023-05-07T08:03:13.009Z,482.00
2023-05-07T08:04:13.056Z,481.00
2023-05-07T08:05:12.959Z,480.00
2023-05-07T08:06:15.206Z,479.00
2023-05-07T08:07:13.030Z,482.00
2023-05-07T08:08:13.102Z,483.00
2023-05-07T08:09:13.154Z,484.00
2023-05-07T08:10:13.329Z,483.00
2023-05-07T08:11:13.266Z,484.00
2023-05-07T08:12:13.348Z,484.00
2023-05-07T08:13:13.471Z,484.00
2023-05-07T08:14:13.445Z,486.00
2023-05-07T08:15:13.539Z,484.00
2023-05-07T08:16:13.569Z,485.00
2023-05-07T08:17:13.640Z,484.00
2023-05-07T08:18:13.703Z,480.00
2023-05-07T08:19:13.764Z,479.00
2023-05-07T08:20:14.110Z,477.00
2023-05-07T08:21:13.898Z,478.00
2023-05-07T08:22:13.940Z,480.00
2023-05-07T08:23:14.075Z,478.00
2023-05-07T08:24:14.056Z,481.00
2023-05-07T08:25:14.086Z,481.00
2023-05-07T08:26:14.173Z,480.00
2023-05-07T08:27:14.211Z,480.00
2023-05-07T08:28:14.308Z,481.00
2023-05-07T08:29:14.362Z,481.00
2023-05-07T08:30:14.452Z,482.00
2023-05-07T08:31:14.572Z,481.00
2023-05-07T08:32:14.550Z,480.00
2023-05-07T08:33:14.607Z,481.00
2023-05-07T08:34:14.655Z,482.00
2023-05-07T08:35:14.705Z,483.00
2023-05-07T08:36:14.789Z,483.00
2023-05-07T08:37:14.837Z,483.00
2023-05-07T08:38:14.886Z,484.00
2023-05-07T08:39:14.943Z,482.00
2023-05-07T08:40:15.023Z,483.00
2023-05-07T08:41:15.066Z,482.00
2023-05-07T08:42:15.129Z,477.00
2023-05-07T08:43:15.190Z,477.00
2023-05-07T08:44:15.226Z,477.00
2023-05-07T08:45:15.266Z,477.00
2023-05-07T08:46:15.367Z,477.00
2023-05-07T08:47:15.401Z,478.00
2023-05-07T08:48:15.499Z,479.00
2023-05-07T08:49:15.522Z,480.00
2023-05-07T08:50:15.562Z,478.00
2023-05-07T08:51:15.631Z,478.00
2023-05-07T08:52:15.679Z,478.00
2023-05-07T08:53:16.220Z,477.00
2023-05-07T08:54:15.792Z,476.00
2023-05-07T08:55:15.874Z,475.00
2023-05-07T08:56:15.871Z,476.00
2023-05-07T08:57:15.949Z,475.00
2023-05-07T08:58:16.006Z,475.00
2023-05-07T08:59:16.068Z,477.00
2023-05-07T09:00:16.098Z,479.00
2023-05-07T09:01:16.240Z,480.00
2023-05-07T09:02:16.305Z,479.00
2023-05-07T09:03:16.346Z,479.00
2023-05-07T09:04:16.358Z,479.00
2023-05-07T09:05:16.379Z,479.00
2023-05-07T09:06:16.441Z,481.00
2023-05-07T09:07:16.526Z,480.00
2023-05-07T09:08:16.598Z,481.00
2023-05-07T09:09:16.613Z,481.00
2023-05-07T09:10:16.715Z,481.00
2023-05-07T09:11:16.732Z,478.00
2023-05-07T09:12:16.796Z,477.00
2023-05-07T09:13:16.900Z,477.00
2023-05-07T09:14:16.926Z,480.00
2023-05-07T09:15:16.974Z,482.00
2023-05-07T09:16:17.050Z,483.00
2023-05-07T09:17:17.064Z,483.00
2023-05-07T09:18:17.154Z,482.00
2023-05-07T09:19:17.188Z,481.00
2023-05-07T09:20:17.222Z,481.00
2023-05-07T09:21:17.288Z,484.00
2023-05-07T09:22:17.318Z,483.00
2023-05-07T09:23:17.391Z,483.00
2023-05-07T09:24:17.522Z,483.00
2023-05-07T09:25:17.511Z,486.00
2023-05-07T09:26:17.551Z,485.00
2023-05-07T09:27:17.600Z,481.00
2023-05-07T09:28:17.677Z,481.00
2023-05-07T09:29:17.724Z,482.00
2023-05-07T09:30:17.829Z,483.00
2023-05-07T09:31:20.445Z,482.00
2023-05-07T09:32:17.839Z,482.00
2023-05-07T09:33:17.879Z,482.00
2023-05-07T09:34:17.802Z,483.00
2023-05-07T09:35:17.808Z,482.00
2023-05-07T09:36:17.819Z,482.00
2023-05-07T09:37:17.759Z,481.00
2023-05-07T09:38:17.785Z,480.00
2023-05-07T09:39:17.787Z,478.00
2023-05-07T09:40:17.851Z,477.00
2023-05-07T09:41:17.766Z,479.00
2023-05-07T09:42:17.777Z,481.00
2023-05-07T09:43:17.765Z,482.00
2023-05-07T09:44:17.751Z,482.00
2023-05-07T09:45:17.774Z,482.00
2023-05-07T09:46:18.054Z,480.00
2023-05-07T09:47:17.708Z,480.00
2023-05-07T09:48:17.696Z,480.00
2023-05-07T09:49:19.176Z,477.00
2023-05-07T09:50:17.794Z,476.00
2023-05-07T09:51:17.694Z,479.00
2023-05-07T09:52:17.711Z,480.00
2023-05-07T09:53:17.710Z,481.00
2023-05-07T09:54:17.663Z,481.00
2023-05-07T09:55:17.675Z,480.00
2023-05-07T09:56:17.749Z,481.00
2023-05-07T09:57:17.680Z,480.00
2023-05-07T09:58:17.669Z,480.00
2023-05-07T09:59:17.651Z,481.00
2023-05-07T10:00:17.631Z,480.00
2023-05-07T10:01:17.631Z,481.00
2023-05-07T10:02:17.628Z,478.00
2023-05-07T10:03:17.657Z,476.00
2023-05-07T10:04:17.646Z,477.00
2023-05-07T10:05:17.625Z,477.00
2023-05-07T10:06:17.584Z,475.00
2023-05-07T10:07:17.587Z,474.00
2023-05-07T10:08:17.639Z,476.00
2023-05-07T10:09:17.557Z,475.00
2023-05-07T10:10:17.716Z,474.00
2023-05-07T10:11:17.566Z,476.00
2023-05-07T10:12:17.660Z,477.00
2023-05-07T10:13:17.658Z,476.00
2023-05-07T10:14:17.533Z,476.00
2023-05-07T10:15:17.614Z,478.00
2023-05-07T10:16:17.541Z,478.00
2023-05-07T10:17:17.575Z,477.00
2023-05-07T10:18:17.635Z,476.00
2023-05-07T10:19:17.534Z,476.00
2023-05-07T10:20:17.494Z,476.00
2023-05-07T10:21:17.530Z,475.00
2023-05-07T10:22:17.506Z,474.00
2023-05-07T10:23:17.520Z,476.00
2023-05-07T10:24:17.513Z,474.00
2023-05-07T10:25:17.461Z,474.00
2023-05-07T10:26:17.513Z,478.00
2023-05-07T10:27:17.530Z,482.00
2023-05-07T10:28:17.673Z,481.00
2023-05-07T10:29:17.626Z,480.00
2023-05-07T10:30:17.721Z,480.00
2023-05-07T10:31:17.783Z,480.00
2023-05-07T10:32:17.799Z,483.00
2023-05-07T10:33:17.917Z,481.00
2023-05-07T10:34:17.918Z,481.00
2023-05-07T10:35:17.986Z,481.00
2023-05-07T10:36:18.025Z,483.00
2023-05-07T10:37:18.089Z,481.00
2023-05-07T10:38:18.154Z,480.00
2023-05-07T10:39:18.194Z,479.00
2023-05-07T10:40:18.238Z,479.00
2023-05-07T10:41:18.307Z,479.00
2023-05-07T10:42:18.397Z,479.00
2023-05-07T10:43:18.420Z,481.00
2023-05-07T10:44:18.522Z,482.00
2023-05-07T10:45:18.510Z,478.00
2023-05-07T10:46:18.630Z,475.00
2023-05-07T10:47:18.615Z,473.00
2023-05-07T10:48:28.697Z,470.00
2023-05-07T10:49:19.640Z,473.00
2023-05-07T10:50:18.645Z,475.00
2023-05-07T10:51:18.663Z,477.00
2023-05-07T10:52:18.641Z,480.00
2023-05-07T10:53:18.631Z,479.00
2023-05-07T10:54:18.606Z,478.00
2023-05-07T10:55:18.763Z,477.00
2023-05-07T10:56:18.622Z,479.00
2023-05-07T10:57:18.628Z,480.00
2023-05-07T10:58:30.283Z,479.00
2023-05-07T10:59:19.653Z,478.00
2023-05-07T11:00:25.290Z,476.00
2023-05-07T11:01:19.701Z,477.00
2023-05-07T11:02:18.622Z,478.00
2023-05-07T11:03:18.618Z,479.00
2023-05-07T11:04:18.691Z,480.00
2023-05-07T11:05:18.604Z,480.00
2023-05-07T11:06:18.584Z,479.00
2023-05-07T11:07:18.593Z,480.00
2023-05-07T11:08:18.582Z,480.00
2023-05-07T11:09:18.574Z,480.00
2023-05-07T11:10:18.597Z,477.00
2023-05-07T11:11:18.636Z,479.00
2023-05-07T11:12:18.731Z,479.00
2023-05-07T11:13:18.782Z,481.00
2023-05-07T11:14:18.805Z,482.00
2023-05-07T11:15:18.884Z,481.00
2023-05-07T11:16:19.067Z,481.00
2023-05-07T11:17:18.954Z,479.00
2023-05-07T11:18:19.027Z,479.00
2023-05-07T11:19:19.045Z,481.00
2023-05-07T11:20:19.104Z,483.00
2023-05-07T11:21:19.153Z,481.00
2023-05-07T11:22:19.214Z,480.00
2023-05-07T11:23:19.269Z,479.00
2023-05-07T11:24:19.279Z,479.00
2023-05-07T11:25:19.353Z,477.00
2023-05-07T11:26:19.397Z,474.00
2023-05-07T11:27:19.453Z,473.00
2023-05-07T11:28:19.510Z,473.00
2023-05-07T11:29:21.772Z,473.00
2023-05-07T11:30:19.562Z,473.00
2023-05-07T11:31:19.548Z,472.00
2023-05-07T11:32:19.584Z,471.00
2023-05-07T11:33:19.556Z,471.00
2023-05-07T11:34:19.503Z,471.00
2023-05-07T11:35:19.511Z,472.00
2023-05-07T11:36:19.498Z,475.00
2023-05-07T11:37:19.497Z,476.00
2023-05-07T11:38:19.525Z,474.00
2023-05-07T11:39:19.490Z,471.00
2023-05-07T11:40:19.485Z,472.00
2023-05-07T11:41:19.464Z,471.00
2023-05-07T11:42:19.463Z,468.00
2023-05-07T11:43:19.478Z,471.00
2023-05-07T11:44:19.446Z,471.00
2023-05-07T11:45:19.461Z,474.00
2023-05-07T11:46:19.452Z,472.00
2023-05-07T11:47:19.506Z,472.00
2023-05-07T11:48:19.439Z,476.00
2023-05-07T11:49:19.389Z,476.00
2023-05-07T11:50:19.419Z,476.00
2023-05-07T11:51:19.394Z,477.00
2023-05-07T11:52:19.417Z,475.00
2023-05-07T11:53:19.398Z,473.00
2023-05-07T11:54:19.384Z,473.00
2023-05-07T11:55:19.389Z,470.00
2023-05-07T11:56:19.378Z,471.00
2023-05-07T11:57:19.382Z,473.00
2023-05-07T11:58:19.359Z,475.00
2023-05-07T11:59:19.355Z,474.00
2023-05-07T12:00:19.343Z,474.00
2023-05-07T12:01:19.333Z,474.00
2023-05-07T12:02:19.357Z,476.00
2023-05-07T12:03:19.481Z,477.00
2023-05-07T12:04:19.414Z,479.00
2023-05-07T12:05:19.330Z,479.00
2023-05-07T12:06:19.298Z,474.00
2023-05-07T12:07:19.303Z,473.00
2023-05-07T12:08:19.292Z,470.00
2023-05-07T12:09:19.266Z,469.00
2023-05-07T12:10:19.271Z,469.00
2023-05-07T12:11:19.269Z,469.00
2023-05-07T12:12:19.280Z,468.00
2023-05-07T12:13:19.335Z,469.00
2023-05-07T12:14:19.246Z,470.00
2023-05-07T12:15:19.293Z,466.00
2023-05-07T12:16:19.401Z,465.00
2023-05-07T12:17:19.474Z,466.00
2023-05-07T12:18:19.436Z,466.00
2023-05-07T12:19:19.462Z,468.00
2023-05-07T12:20:19.523Z,469.00
2023-05-07T12:21:19.564Z,470.00
2023-05-07T12:22:19.591Z,473.00
2023-05-07T12:23:19.667Z,475.00
2023-05-07T12:24:21.867Z,473.00
2023-05-07T12:25:19.779Z,471.00
2023-05-07T12:26:19.741Z,473.00
2023-05-07T12:27:19.814Z,473.00
2023-05-07T12:28:19.854Z,472.00
2023-05-07T12:29:19.889Z,472.00